Time;durP1;ratioP1;P1;durP2;ratioP2;P2;SDS_P1;SDS_P2;PMS_P1;PMS_P2;Temp;Humidity;BMP_temperature;BMP_pressure;BME280_temperature;BME280_humidity;BME280_pressure;Samples;Min_cycle;Max_cycle;Signal;HPM_P1;HPM_P2
2021/04/03 00:00:42;;;;;;;34.00;7.97;;;10.60;59.70;;;;;;5091092;28;20477;-67
2021/04/03 00:03:10;;;;;;;18.23;6.97;;;10.80;58.90;;;;;;5073428;28;20048;-67
2021/04/03 00:05:38;;;;;;;20.00;6.10;;;10.50;58.00;;;;;;5073795;28;20047;-68
2021/04/03 00:08:07;;;;;;;30.00;6.88;;;10.50;59.30;;;;;;5091301;28;20109;-68
2021/04/03 00:10:49;;;;;;;33.03;7.72;;;10.40;59.20;;;;;;5073809;28;20040;-67
2021/04/03 00:13:19;;;;;;;27.92;6.38;;;10.50;58.80;;;;;;5092608;28;20052;-68
2021/04/03 00:15:46;;;;;;;18.30;5.40;;;10.30;58.40;;;;;;5073655;28;20059;-67
2021/04/03 00:18:14;;;;;;;30.50;5.93;;;10.20;58.40;;;;;;5091662;28;20036;-67
2021/04/03 00:20:42;;;;;;;26.50;6.55;;;10.20;58.50;;;;;;5091341;28;20634;-66
2021/04/03 00:23:09;;;;;;;23.38;6.35;;;;;;;;;;5092174;28;20044;-65
2021/04/03 00:25:36;;;;;;;13.38;5.35;;;;;;;;;;5091965;28;20044;-68
2021/04/03 00:28:03;;;;;;;34.42;6.32;;;;;;;;;;5091317;28;20072;-67
2021/04/03 00:30:31;;;;;;;19.85;5.57;;;;;;;;;;5090752;28;20039;-66
2021/04/03 00:33:02;;;;;;;21.08;6.03;;;9.50;59.00;;;;;;5091366;28;20474;-66
2021/04/03 00:35:32;;;;;;;28.45;6.00;;;9.70;58.40;;;;;;5094116;28;20043;-66
2021/04/03 00:38:00;;;;;;;22.38;5.30;;;9.40;58.80;;;;;;5095181;28;20078;-66
2021/04/03 00:40:37;;;;;;;26.23;5.20;;;9.40;59.60;;;;;;5095193;28;20085;-68
2021/04/03 00:43:09;;;;;;;24.45;4.93;;;9.60;58.60;;;;;;5094716;28;20078;-66
2021/04/03 00:45:36;;;;;;;25.88;5.22;;;;;;;;;;5076445;28;20060;-67
2021/04/03 00:48:04;;;;;;;27.00;6.40;;;9.90;57.50;;;;;;5094463;28;20056;-68
2021/04/03 00:50:37;;;;;;;27.13;5.43;;;9.90;57.40;;;;;;5094941;28;20063;-67
2021/04/03 00:53:06;;;;;;;24.13;5.50;;;;;;;;;;5076546;28;20128;-66
2021/04/03 00:55:36;;;;;;;31.33;6.05;;;;;;;;;;5076536;28;20040;-68
2021/04/03 00:58:03;;;;;;;29.33;5.63;;;10.10;56.60;;;;;;5076701;28;20052;-66
2021/04/03 01:00:30;;;;;;;27.23;5.63;;;;;;;;;;5094535;28;20048;-66
2021/04/03 01:02:58;;;;;;;28.23;5.43;;;;;;;;;;5076805;28;20051;-67
2021/04/03 01:05:28;;;;;;;37.60;5.22;;;10.40;55.50;;;;;;5076488;28;20044;-67
2021/04/03 01:07:58;;;;;;;19.92;4.85;;;;;;;;;;5094615;28;20040;-67
2021/04/03 01:10:33;;;;;;;19.85;4.70;;;10.30;55.10;;;;;;5094081;28;20353;-67
2021/04/03 01:13:32;;;;;;;30.23;5.60;;;10.10;55.00;;;;;;5075895;28;20410;-67
2021/04/03 01:16:37;;;;;;;26.52;5.45;;;10.20;54.80;;;;;;5050474;28;20047;-66
2021/04/03 01:19:35;;;;;;;16.88;4.85;;;10.10;55.80;;;;;;5094328;28;20063;-66
2021/04/03 01:22:34;;;;;;;28.88;6.60;;;10.10;56.10;;;;;;5076111;28;20044;-66
2021/04/03 01:25:30;;;;;;;18.33;5.00;;;10.30;55.20;;;;;;5094166;28;20486;-67
2021/04/03 01:28:19;;;;;;;24.63;5.63;;;10.50;55.20;;;;;;5060455;28;20041;-67
2021/04/03 01:30:49;;;;;;;27.77;5.38;;;10.60;54.60;;;;;;5054281;28;20109;-66
2021/04/03 01:33:21;;;;;;;24.60;5.95;;;10.60;54.30;;;;;;5075857;28;20059;-67
2021/04/03 01:36:02;;;;;;;20.63;6.53;;;10.60;54.40;;;;;;5093910;28;20047;-65
2021/04/03 01:38:56;;;;;;;22.67;5.55;;;10.50;54.70;;;;;;5075789;28;20091;-68
2021/04/03 01:41:28;;;;;;;24.92;5.68;;;10.60;54.80;;;;;;5075413;28;20525;-68
2021/04/03 01:43:57;;;;;;;19.75;4.63;;;10.60;54.40;;;;;;5075427;28;20048;-67
2021/04/03 01:46:34;;;;;;;32.92;5.32;;;10.60;54.30;;;;;;5075799;28;20071;-68
2021/04/03 01:49:09;;;;;;;28.27;5.22;;;10.60;54.20;;;;;;5075931;28;20048;-65
2021/04/03 01:51:42;;;;;;;24.08;5.28;;;10.60;54.30;;;;;;5075555;28;20102;-67
2021/04/03 01:54:11;;;;;;;25.50;5.65;;;10.70;54.10;;;;;;5093671;28;20047;-66
2021/04/03 01:56:42;;;;;;;27.95;5.43;;;10.80;53.60;;;;;;5093200;28;20044;-67
2021/04/03 01:59:12;;;;;;;25.05;5.00;;;10.80;53.50;;;;;;5075529;28;20059;-67
2021/04/03 02:01:43;;;;;;;23.85;5.25;;;10.80;53.80;;;;;;5075658;28;20498;-66
2021/04/03 02:04:15;;;;;;;23.00;5.72;;;10.80;53.60;;;;;;5069049;28;20051;-68
2021/04/03 02:06:45;;;;;;;21.05;5.03;;;10.70;53.60;;;;;;5086647;28;20048;-66
2021/04/03 02:09:28;;;;;;;20.65;5.38;;;10.70;53.90;;;;;;5076160;28;20089;-67
2021/04/03 02:12:05;;;;;;;23.38;5.35;;;10.80;53.70;;;;;;5092754;28;20047;-66
2021/04/03 02:14:49;;;;;;;24.75;5.68;;;10.80;53.70;;;;;;5093540;28;20417;-67
2021/04/03 02:17:19;;;;;;;26.70;5.57;;;10.80;53.10;;;;;;5093214;28;20048;-67
2021/04/03 02:19:48;;;;;;;22.77;4.45;;;;;;;;;;5093066;28;20063;-67
2021/04/03 02:22:19;;;;;;;21.83;5.05;;;10.80;53.30;;;;;;5074566;28;20060;-65
2021/04/03 02:25:06;;;;;;;;;;;10.80;53.80;;;;;;5075398;28;20521;-67
2021/04/03 02:27:34;;;;;;;20.10;6.07;;;;;;;;;;5092790;28;19947;-69
2021/04/03 02:30:17;;;;;;;21.75;5.53;;;10.80;53.20;;;;;;5092706;28;20044;-68
2021/04/03 02:32:53;;;;;;;22.27;5.03;;;10.80;53.20;;;;;;5074433;28;20086;-69
2021/04/03 02:35:24;;;;;;;26.67;5.65;;;10.60;53.30;;;;;;5058298;28;20044;-68
2021/04/03 02:37:55;;;;;;;20.73;4.65;;;10.50;53.40;;;;;;5074654;28;20087;-67
2021/04/03 02:40:29;;;;;;;23.17;5.47;;;10.50;53.50;;;;;;5092473;28;20506;-68
2021/04/03 02:43:03;;;;;;;24.08;5.55;;;10.50;53.40;;;;;;5092567;28;20047;-66
2021/04/03 02:45:36;;;;;;;28.60;6.60;;;10.50;53.70;;;;;;5074626;28;20052;-66
2021/04/03 02:48:09;;;;;;;29.90;6.45;;;10.50;53.90;;;;;;5075219;28;20055;-68
2021/04/03 02:50:42;;;;;;;24.77;5.60;;;10.70;53.40;;;;;;5075644;28;20044;-67
2021/04/03 02:53:13;;;;;;;28.75;5.45;;;10.80;53.50;;;;;;5057759;28;20040;-67
2021/04/03 02:55:49;;;;;;;28.05;5.47;;;10.80;53.10;;;;;;5064140;28;20070;-67
2021/04/03 02:58:21;;;;;;;35.97;7.05;;;10.80;53.00;;;;;;5074222;28;20048;-66
2021/04/03 03:00:51;;;;;;;20.02;5.28;;;10.70;52.90;;;;;;5075816;28;20557;-67
2021/04/03 03:03:21;;;;;;;21.92;4.93;;;10.80;53.00;;;;;;5076493;28;20047;-67
2021/04/03 03:05:50;;;;;;;28.05;6.22;;;10.90;52.70;;;;;;5075363;28;20047;-67
2021/04/03 03:08:19;;;;;;;24.85;5.45;;;10.80;52.90;;;;;;5092648;28;20040;-67
2021/04/03 03:10:46;;;;;;;24.33;5.22;;;;;;;;;;5074548;28;20055;-68
2021/04/03 03:13:17;;;;;;;22.60;4.85;;;10.80;52.80;;;;;;5074758;28;20052;-67
2021/04/03 03:15:44;;;;;;;22.23;5.18;;;;;;;;;;5058987;28;20063;-67
2021/04/03 03:18:15;;;;;;;20.13;5.38;;;10.90;53.00;;;;;;5093514;28;20052;-66
2021/04/03 03:20:44;;;;;;;24.13;5.68;;;10.90;52.80;;;;;;5074097;28;20490;-67
2021/04/03 03:23:15;;;;;;;23.90;5.22;;;;;;;;;;5074187;28;20494;-68
2021/04/03 03:25:45;;;;;;;24.85;5.40;;;;;;;;;;5074255;28;20394;-65
2021/04/03 03:28:13;;;;;;;20.58;5.72;;;;;;;;;;5074563;28;20120;-68
2021/04/03 03:30:44;;;;;;;19.35;4.90;;;;;;;;;;5093372;28;20036;-65
2021/04/03 03:33:17;;;;;;;24.73;4.93;;;;;;;;;;5074846;28;20093;-68
2021/04/03 03:35:45;;;;;;;26.40;5.15;;;;;;;;;;5073929;28;20036;-66
2021/04/03 03:38:14;;;;;;;21.60;4.95;;;;;;;;;;5091657;28;20044;-67
2021/04/03 03:40:42;;;;;;;37.65;5.95;;;;;;;;;;5073772;28;20051;-67
2021/04/03 03:43:17;;;;;;;21.95;4.93;;;10.80;52.60;;;;;;5073827;28;20040;-66
2021/04/03 03:45:49;;;;;;;21.08;5.40;;;11.00;52.40;;;;;;5073789;28;20040;-67
2021/04/03 03:48:17;;;;;;;24.52;4.97;;;;;;;;;;5073494;28;20071;-68
2021/04/03 03:50:44;;;;;;;17.08;5.18;;;;;;;;;;5092104;28;20048;-65
2021/04/03 03:53:12;;;;;;;24.30;5.07;;;;;;;;;;5073204;28;20101;-68
2021/04/03 03:55:39;;;;;;;29.15;5.18;;;;;;;;;;5073666;28;20125;-66
2021/04/03 03:58:13;;;;;;;27.35;6.70;;;;;;;;;;5057655;28;20040;-67
2021/04/03 04:00:45;;;;;;;19.88;5.50;;;;;;;;;;5073961;28;20052;-65
2021/04/03 04:03:16;;;;;;;25.40;5.25;;;;;;;;;;5073763;28;20044;-68
2021/04/03 04:05:47;;;;;;;21.75;5.10;;;;;;;;;;5073543;28;20044;-67
2021/04/03 04:08:20;;;;;;;32.17;5.20;;;;;;;;;;5072935;28;20086;-67
2021/04/03 04:10:52;;;;;;;24.10;5.78;;;11.10;52.10;;;;;;5059815;28;20089;-68
2021/04/03 04:13:21;;;;;;;26.67;5.65;;;;;;;;;;5061013;28;20052;-67
2021/04/03 04:15:49;;;;;;;21.58;5.20;;;;;;;;;;5060767;28;20067;-68
2021/04/03 04:18:16;;;;;;;22.10;5.65;;;;;;;;;;5095924;28;20036;-66
2021/04/03 04:20:43;;;;;;;21.85;5.07;;;;;;;;;;5060650;28;20048;-68
2021/04/03 04:23:18;;;;;;;23.30;4.72;;;;;;;;;;5077457;28;20036;-68
2021/04/03 04:25:50;;;;;;;27.13;5.60;;;;;;;;;;5077416;28;20052;-66
2021/04/03 04:28:20;;;;;;;27.05;6.28;;;;;;;;;;5077158;28;20039;-66
2021/04/03 04:30:49;;;;;;;17.98;4.60;;;;;;;;;;5077073;28;20456;-66
2021/04/03 04:33:17;;;;;;;30.67;5.70;;;;;;;;;;5066103;28;20123;-64
2021/04/03 04:35:45;;;;;;;34.22;6.80;;;;;;;;;;5069438;28;20047;-66
2021/04/03 04:38:18;;;;;;;19.35;4.82;;;;;;;;;;5077033;28;20052;-67
2021/04/03 04:40:47;;;;;;;22.35;5.88;;;;;;;;;;5077236;28;20102;-66
2021/04/03 04:43:21;;;;;;;25.55;6.20;;;10.80;52.50;;;;;;5094857;28;20044;-66
2021/04/03 04:45:50;;;;;;;21.20;6.03;;;;;;;;;;5076999;28;20044;-66
2021/04/03 04:48:23;;;;;;;23.20;5.28;;;;;;;;;;5076755;28;20040;-66
2021/04/03 04:50:58;;;;;;;25.70;6.75;;;;;;;;;;5076561;28;20054;-66
2021/04/03 04:53:27;;;;;;;25.33;6.70;;;;;;;;;;5076644;28;20040;-66
2021/04/03 04:55:55;;;;;;;25.42;5.78;;;;;;;;;;5095014;28;20055;-68
2021/04/03 04:58:22;;;;;;;27.30;5.20;;;;;;;;;;5076531;28;20052;-65
2021/04/03 05:00:50;;;;;;;21.80;5.30;;;;;;;;;;5076729;28;20410;-67
2021/04/03 05:03:27;;;;;;;20.13;4.93;;;;;;;;;;5076156;28;20402;-66
2021/04/03 05:05:55;;;;;;;29.77;5.65;;;;;;;;;;5075820;28;20046;-66
2021/04/03 05:08:22;;;;;;;20.08;5.57;;;;;;;;;;5092673;28;20093;-66
2021/04/03 05:10:49;;;;;;;23.00;6.25;;;;;;;;;;5082253;28;20040;-66
2021/04/03 05:13:16;;;;;;;26.00;6.93;;;;;;;;;;5094443;28;20059;-66
2021/04/03 05:15:43;;;;;;;;;;;10.30;51.30;;;;;;5095108;28;20540;-65
2021/04/03 05:18:09;;;;;;;;;;;10.20;52.60;;;;;;5094817;28;19920;-67
2021/04/03 05:20:36;;;;;;;29.42;5.15;;;;;;;;;;5092463;28;19920;-67
2021/04/03 05:23:03;;;;;;;;;;;10.00;52.20;;;;;;5093439;28;20032;-67
2021/04/03 05:25:30;;;;;;;27.30;7.18;;;;;;;;;;5074967;28;20373;-62
2021/04/03 05:27:57;;;;;;;20.45;7.22;;;;;;;;;;5093034;28;20044;-66
2021/04/03 05:30:23;;;;;;;;;;;10.30;52.00;;;;;;5093317;28;20040;-65
2021/04/03 05:32:51;;;;;;;26.63;5.43;;;;;;;;;;5091679;28;19955;-67
2021/04/03 05:35:18;;;;;;;28.15;5.68;;;;;;;;;;5092439;28;20115;-66
2021/04/03 05:37:45;;;;;;;35.38;6.00;;;;;;;;;;4387973;28;10021528;-65
2021/04/03 05:40:12;;;;;;;31.98;6.32;;;;;;;;;;5090748;28;20040;-66
2021/04/03 05:42:44;;;;;;;25.80;5.75;;;10.30;51.20;;;;;;5072288;28;20118;-64
2021/04/03 05:45:16;;;;;;;39.45;6.72;;;10.40;51.20;;;;;;5090608;28;20109;-67
2021/04/03 05:47:43;;;;;;;29.13;5.95;;;;;;;;;;5072351;28;20051;-67
2021/04/03 05:50:11;;;;;;;33.42;6.15;;;10.40;51.30;;;;;;5089822;28;20032;-67
2021/04/03 05:52:40;;;;;;;26.08;6.10;;;;;;;;;;5072821;28;20056;-64
2021/04/03 05:55:08;;;;;;;29.38;5.53;;;10.40;51.40;;;;;;5090053;28;20039;-67
2021/04/03 05:57:35;;;;;;;27.33;6.45;;;10.40;51.30;;;;;;5090142;28;20048;-67
2021/04/03 06:00:04;;;;;;;28.50;6.13;;;10.40;51.30;;;;;;5090017;28;20485;-65
2021/04/03 06:02:40;;;;;;;32.42;6.93;;;;;;;;;;5089653;28;20406;-66
2021/04/03 06:05:07;;;;;;;18.92;5.85;;;10.50;51.50;;;;;;5089925;28;20052;-68
2021/04/03 06:07:35;;;;;;;30.13;7.30;;;;;;;;;;5071833;28;20059;-65
2021/04/03 06:10:05;;;;;;;26.35;6.00;;;10.50;51.60;;;;;;5070447;28;20056;-64
2021/04/03 06:12:48;;;;;;;32.15;5.82;;;10.50;51.50;;;;;;5077928;28;20028;-67
2021/04/03 06:15:34;;;;;;;24.50;6.05;;;10.70;51.40;;;;;;5089656;28;20494;-65
2021/04/03 06:18:07;;;;;;;30.80;6.32;;;10.80;51.50;;;;;;5071572;28;20105;-65
2021/04/03 06:20:40;;;;;;;40.13;8.35;;;10.50;51.40;;;;;;5070197;28;563033;-67
2021/04/03 06:23:08;;;;;;;37.20;7.32;;;10.80;51.40;;;;;;5090450;28;20048;-66
2021/04/03 06:25:55;;;;;;;39.78;6.30;;;10.50;51.90;;;;;;5089718;28;20048;-68
2021/04/03 06:28:27;;;;;;;27.92;6.15;;;10.10;53.00;;;;;;5090407;28;20106;-68
2021/04/03 06:30:58;;;;;;;32.45;6.82;;;9.90;53.90;;;;;;5085571;28;20087;-66
2021/04/03 06:33:26;;;;;;;39.65;7.47;;;;;;;;;;5088951;28;20074;-68
2021/04/03 06:36:11;;;;;;;23.25;6.35;;;9.80;55.00;;;;;;5073578;28;20032;-67
2021/04/03 06:38:40;;;;;;;39.42;7.05;;;9.70;55.30;;;;;;5089386;28;20047;-66
2021/04/03 06:41:20;;;;;;;32.05;6.22;;;9.70;55.70;;;;;;5090304;28;20492;-67
2021/04/03 06:44:07;;;;;;;36.35;6.60;;;9.70;55.60;;;;;;5089922;28;20257;-67
2021/04/03 06:46:39;;;;;;;35.17;7.18;;;9.80;55.30;;;;;;5071145;28;20100;-65
2021/04/03 06:49:06;;;;;;;38.42;7.35;;;;;;;;;;5089877;28;20028;-68
2021/04/03 06:51:34;;;;;;;31.33;6.53;;;;;;;;;;5089467;28;20040;-67
2021/04/03 06:54:02;;;;;;;35.90;8.20;;;9.40;57.10;;;;;;5066120;28;20525;-66
2021/04/03 06:56:36;;;;;;;31.10;6.25;;;9.50;56.70;;;;;;5069072;28;20112;-67
2021/04/03 06:59:07;;;;;;;46.30;7.90;;;9.70;56.40;;;;;;5075593;28;20048;-66
2021/04/03 07:01:34;;;;;;;45.95;7.50;;;;;;;;;;5071658;28;20055;-67
2021/04/03 07:04:09;;;;;;;34.60;6.57;;;10.20;55.40;;;;;;5087528;28;20119;-68
2021/04/03 07:06:37;;;;;;;29.45;7.22;;;10.40;54.90;;;;;;5079630;28;20060;-69
2021/04/03 07:09:05;;;;;;;44.15;7.75;;;10.30;55.20;;;;;;5068090;28;20057;-66
2021/04/03 07:11:33;;;;;;;32.15;6.20;;;;;;;;;;5040566;28;20107;-66
2021/04/03 07:14:00;;;;;;;38.20;7.13;;;10.40;55.10;;;;;;5069660;28;20042;-65
2021/04/03 07:16:28;;;;;;;33.60;6.55;;;10.00;55.70;;;;;;5062971;28;20047;-67
2021/04/03 07:19:00;;;;;;;38.17;7.68;;;9.90;57.00;;;;;;5076380;28;20096;-66
2021/04/03 07:21:27;;;;;;;48.33;9.23;;;;;;;;;;5069576;28;20056;-67
2021/04/03 07:23:54;;;;;;;37.80;8.00;;;;;;;;;;5060731;28;20036;-67
2021/04/03 07:26:21;;;;;;;40.97;8.43;;;;;;;;;;5060990;28;20101;-68
2021/04/03 07:28:48;;;;;;;33.60;7.13;;;;;;;;;;5078057;28;20494;-69
2021/04/03 07:31:34;;;;;;;;;;;9.90;57.00;;;;;;5086873;28;20051;-67
2021/04/03 07:34:02;;;;;;;46.75;7.13;;;;;;;;;;5084930;28;20302;-67
2021/04/03 07:36:34;;;;;;;32.60;7.50;;;9.60;58.20;;;;;;5088147;28;20097;-68
2021/04/03 07:39:02;;;;;;;34.05;6.78;;;9.40;58.60;;;;;;5090913;28;20048;-67
2021/04/03 07:41:36;;;;;;;34.28;8.15;;;9.40;58.80;;;;;;5091041;28;20105;-68
2021/04/03 07:44:11;;;;;;;42.60;10.30;;;8.90;60.60;;;;;;5090743;28;20097;-67
2021/04/03 07:46:47;;;;;;;41.60;8.32;;;9.00;60.90;;;;;;5090852;28;20044;-68
2021/04/03 07:49:33;;;;;;;43.70;7.50;;;9.10;60.80;;;;;;5090434;28;20127;-67
2021/04/03 07:52:01;;;;;;;37.22;8.30;;;;;;;;;;5065739;28;20059;-66
2021/04/03 07:54:30;;;;;;;42.63;7.32;;;9.40;59.60;;;;;;5090381;28;20086;-66
2021/04/03 07:56:59;;;;;;;35.70;6.60;;;9.70;58.20;;;;;;5072376;28;20472;-66
2021/04/03 07:59:44;;;;;;;40.47;7.88;;;9.40;57.20;;;;;;5077834;28;20053;-66
2021/04/03 08:02:19;;;;;;;37.05;7.68;;;10.10;56.40;;;;;;5076356;28;20090;-68
2021/04/03 08:04:47;;;;;;;33.85;7.35;;;;;;;;;;5090091;28;20126;-65
2021/04/03 08:07:14;;;;;;;35.78;7.38;;;10.50;54.80;;;;;;5072692;28;20044;-66
2021/04/03 08:09:41;;;;;;;34.97;7.45;;;;;;;;;;5090957;28;20040;-67
2021/04/03 08:12:09;;;;;;;34.30;7.50;;;9.90;56.60;;;;;;5069761;28;20541;-69
2021/04/03 08:14:36;;;;;;;36.47;6.45;;;9.80;56.00;;;;;;5065571;28;20047;-67
2021/04/03 08:17:05;;;;;;;41.78;8.02;;;9.80;56.60;;;;;;5078490;28;20089;-67
2021/04/03 08:19:34;;;;;;;31.55;6.90;;;10.10;56.50;;;;;;5061631;28;20487;-68
2021/04/03 08:22:09;;;;;;;38.53;7.90;;;10.50;56.00;;;;;;5081413;28;20119;-67
2021/04/03 08:24:36;;;;;;;34.67;6.93;;;;;;;;;;5081378;28;20033;-68
2021/04/03 08:27:03;;;;;;;45.67;7.38;;;;;;;;;;5064757;28;20044;-69
2021/04/03 08:29:36;;;;;;;33.97;6.63;;;9.90;56.70;;;;;;5079572;28;20057;-69
2021/04/03 08:32:05;;;;;;;32.13;6.88;;;9.70;56.10;;;;;;5082575;28;20039;-67
2021/04/03 08:34:32;;;;;;;42.80;7.38;;;;;;;;;;5079267;28;20040;-68
2021/04/03 08:36:59;;;;;;;30.90;7.40;;;;;;;;;;5059404;28;20048;-67
2021/04/03 08:39:27;;;;;;;35.65;6.97;;;9.50;57.60;;;;;;5051955;28;20044;-66
2021/04/03 08:41:57;;;;;;;21.45;6.63;;;9.80;57.60;;;;;;5070150;28;20039;-66
2021/04/03 08:44:30;;;;;;;31.65;6.07;;;9.70;56.20;;;;;;5069382;28;20049;-67
2021/04/03 08:47:04;;;;;;;32.80;5.63;;;9.60;56.10;;;;;;4705610;28;10000042;-67
2021/04/03 08:49:34;;;;;;;36.58;6.72;;;9.80;56.10;;;;;;5067977;28;20033;-66
2021/04/03 08:52:02;;;;;;;41.60;8.50;;;;;;;;;;5067874;28;20120;-67
2021/04/03 08:54:37;;;;;;;49.15;7.90;;;10.20;54.40;;;;;;5049410;28;20067;-67
2021/04/03 08:57:24;;;;;;;43.15;7.13;;;10.30;54.40;;;;;;5057471;28;20099;-67
2021/04/03 08:59:51;;;;;;;21.75;6.35;;;;;;;;;;5071924;28;20036;-69
2021/04/03 09:02:18;;;;;;;21.95;6.65;;;;;;;;;;5071553;28;20391;-67
2021/04/03 09:04:45;;;;;;;32.33;6.10;;;;;;;;;;5072059;28;20139;-67
2021/04/03 09:07:12;;;;;;;26.65;5.65;;;;;;;;;;5053642;28;20098;-69
2021/04/03 09:09:40;;;;;;;37.67;6.82;;;;;;;;;;5070751;28;20051;-66
2021/04/03 09:12:10;;;;;;;35.05;8.20;;;11.60;51.20;;;;;;5070637;28;20040;-67
2021/04/03 09:14:39;;;;;;;27.15;6.47;;;11.90;50.40;;;;;;5072099;28;20040;-68
2021/04/03 09:17:18;;;;;;;32.70;5.95;;;11.80;49.50;;;;;;5056133;28;20129;-67
2021/04/03 09:19:45;;;;;;;30.45;6.70;;;11.70;50.00;;;;;;5073688;28;20107;-69
2021/04/03 09:22:14;;;;;;;27.27;6.32;;;11.70;50.50;;;;;;5091150;28;20040;-68
2021/04/03 09:25:05;;;;;;;41.08;7.97;;;11.60;51.00;;;;;;5094097;28;20559;-67
2021/04/03 09:27:32;;;;;;;37.22;6.97;;;;;;;;;;5074557;28;20056;-67
2021/04/03 09:30:05;;;;;;;;;;;11.50;51.10;;;;;;5093769;28;20040;-67
2021/04/03 09:32:46;;;;;;;43.78;7.70;;;11.30;50.50;;;;;;5070238;28;19928;-69
2021/04/03 09:35:35;;;;;;;36.55;8.18;;;11.20;51.50;;;;;;5086116;28;20071;-67
2021/04/03 09:38:04;;;;;;;33.90;6.65;;;10.90;51.70;;;;;;5074951;28;20056;-66
2021/04/03 09:40:45;;;;;;;33.20;6.25;;;10.90;52.40;;;;;;5092776;28;20043;-68
2021/04/03 09:43:14;;;;;;;28.17;6.18;;;11.30;51.70;;;;;;5093357;28;20044;-67
2021/04/03 09:45:44;;;;;;;33.92;6.65;;;11.30;51.00;;;;;;5092814;28;20079;-69
2021/04/03 09:48:11;;;;;;;41.33;6.55;;;;;;;;;;5092716;28;20036;-68
2021/04/03 09:50:40;;;;;;;26.67;5.80;;;12.10;48.10;;;;;;5092789;28;20044;-68
2021/04/03 09:53:08;;;;;;;32.00;6.63;;;12.00;48.60;;;;;;5078290;28;20045;-69
2021/04/03 09:55:36;;;;;;;30.10;6.40;;;;;;;;;;5092301;28;20133;-67
2021/04/03 09:58:03;;;;;;;33.70;6.40;;;;;;;;;;5092657;28;20109;-68
2021/04/03 10:00:30;;;;;;;30.70;7.28;;;;;;;;;;5088969;28;20044;-68
2021/04/03 10:02:59;;;;;;;27.00;6.28;;;12.90;46.20;;;;;;5067826;28;20043;-67
2021/04/03 10:05:26;;;;;;;31.27;6.35;;;;;;;;;;5086635;28;20057;-68
2021/04/03 10:07:53;;;;;;;36.25;7.85;;;;;;;;;;5064518;28;20117;-66
2021/04/03 10:10:20;;;;;;;27.08;6.32;;;;;;;;;;5091865;28;20040;-68
2021/04/03 10:12:47;;;;;;;36.70;6.22;;;;;;;;;;5091841;28;20048;-65
2021/04/03 10:15:14;;;;;;;31.08;7.03;;;;;;;;;;5091653;28;20055;-67
2021/04/03 10:17:41;;;;;;;27.88;7.05;;;12.90;46.00;;;;;;5074473;28;20098;-66
2021/04/03 10:20:08;;;;;;;31.00;6.38;;;;;;;;;;5092135;28;20052;-68
2021/04/03 10:22:35;;;;;;;29.55;6.10;;;;;;;;;;5091811;28;20324;-67
2021/04/03 10:25:02;;;;;;;30.58;6.00;;;;;;;;;;5085946;28;20040;-67
2021/04/03 10:27:29;;;;;;;36.40;6.35;;;;;;;;;;5082517;28;20048;-68
2021/04/03 10:29:56;;;;;;;;;;;14.00;45.40;;;;;;5084394;28;20064;-65
2021/04/03 10:32:22;;;;;;;;;;;13.70;44.20;;;;;;5089718;28;19919;-68
2021/04/03 10:34:49;;;;;;;;;;;12.40;48.40;;;;;;5091931;28;19920;-66
2021/04/03 10:37:15;;;;;;;25.60;6.28;;;12.90;46.90;;;;;;5069424;28;19969;-66
2021/04/03 10:39:42;;;;;;;39.78;6.47;;;;;;;;;;5091266;28;20052;-67
2021/04/03 10:42:09;;;;;;;;;;;13.50;45.30;;;;;;5092647;28;20036;-70
2021/04/03 10:44:36;;;;;;;26.15;5.40;;;;;;;;;;5091865;28;19923;-69
2021/04/03 10:47:04;;;;;;;32.10;6.60;;;;;;;;;;5091972;28;20441;-68
2021/04/03 10:49:31;;;;;;;26.58;6.20;;;13.90;43.10;;;;;;5091371;28;20157;-66
2021/04/03 10:51:57;;;;;;;29.75;5.82;;;14.10;43.60;;;;;;5073473;28;20078;-67
2021/04/03 10:54:24;;;;;;;37.97;6.25;;;14.30;42.50;;;;;;5090977;28;20043;-68
2021/04/03 10:56:51;;;;;;;34.30;6.20;;;14.40;41.70;;;;;;5091660;28;20043;-68
2021/04/03 10:59:18;;;;;;;30.17;6.53;;;;;;;;;;5080268;28;20082;-68
2021/04/03 11:01:45;;;;;;;;;;;14.50;41.00;;;;;;5059667;28;20147;-67
2021/04/03 11:04:11;;;;;;;;;;;14.00;44.40;;;;;;5091631;28;20283;-68
2021/04/03 11:06:38;;;;;;;29.45;6.95;;;13.10;44.30;;;;;;5089661;28;20449;-68
2021/04/03 11:09:05;;;;;;;33.13;6.43;;;13.00;44.80;;;;;;5078312;28;20037;-69
2021/04/03 11:11:31;;;;;;;32.70;6.70;;;13.20;43.90;;;;;;5091407;28;20039;-70
2021/04/03 11:13:59;;;;;;;25.48;5.85;;;13.70;43.60;;;;;;5090951;28;20043;-67
2021/04/03 11:16:26;;;;;;;28.23;5.82;;;14.20;42.30;;;;;;5090626;28;20044;-68
2021/04/03 11:18:53;;;;;;;32.55;6.00;;;14.60;41.00;;;;;;5090335;28;20074;-66
2021/04/03 11:21:21;;;;;;;34.28;7.78;;;14.90;41.20;;;;;;5090188;28;20067;-69
2021/04/03 11:23:49;;;;;;;28.45;5.93;;;14.90;40.90;;;;;;5090271;28;20118;-72
2021/04/03 11:26:16;;;;;;;39.28;6.72;;;14.80;41.50;;;;;;5090253;28;20058;-69
2021/04/03 11:28:42;;;;;;;;;;;14.70;41.40;;;;;;5073083;28;20055;-67
2021/04/03 11:31:09;;;;;;;;;;;15.30;41.10;;;;;;5088680;28;19928;-67
2021/04/03 11:33:36;;;;;;;;;;;15.30;41.10;;;;;;5091376;28;19981;-67
2021/04/03 11:36:03;;;;;;;30.58;6.20;;;14.40;42.70;;;;;;5072020;28;19920;-67
2021/04/03 11:38:29;;;;;;;30.10;5.60;;;14.40;40.40;;;;;;5090521;28;20150;-68
2021/04/03 11:40:57;;;;;;;23.42;5.55;;;14.10;40.90;;;;;;5080513;28;20055;-70
2021/04/03 11:43:24;;;;;;;26.83;5.60;;;14.50;39.40;;;;;;5079398;28;20140;-68
2021/04/03 11:45:50;;;;;;;28.67;5.97;;;14.70;40.10;;;;;;5079958;28;20090;-69
2021/04/03 11:48:17;;;;;;;;;;;14.70;40.10;;;;;;5062181;28;20056;-69
2021/04/03 11:50:52;;;;;;;27.48;6.65;;;15.30;39.00;;;;;;5074631;28;19920;-71
2021/04/03 11:53:19;;;;;;;24.02;6.03;;;15.50;37.90;;;;;;5086973;28;20456;-71
2021/04/03 11:55:46;;;;;;;;;;;15.40;37.80;;;;;;5072502;28;20059;-73
2021/04/03 11:58:14;;;;;;;21.85;5.10;;;15.70;38.60;;;;;;5087113;28;19921;-72
2021/04/03 12:00:40;;;;;;;27.00;5.95;;;15.70;36.70;;;;;;5083740;28;20491;-70
2021/04/03 12:03:07;;;;;;;29.25;6.18;;;14.80;38.20;;;;;;5083008;28;20490;-72
2021/04/03 12:05:34;;;;;;;25.83;5.25;;;14.40;40.80;;;;;;5087987;28;20055;-70
2021/04/03 12:08:00;;;;;;;23.38;5.32;;;14.70;40.20;;;;;;5088142;28;20111;-73
2021/04/03 12:10:28;;;;;;;27.52;6.15;;;14.80;39.00;;;;;;5087766;28;20471;-71
2021/04/03 12:12:55;;;;;;;;;;;14.80;39.50;;;;;;5072803;28;20109;-73
2021/04/03 12:15:21;;;;;;;;;;;15.10;38.70;;;;;;5087401;28;19920;-70
2021/04/03 12:17:48;;;;;;;24.00;6.18;;;15.10;37.00;;;;;;5065509;28;20449;-70
2021/04/03 12:20:16;;;;;;;27.33;6.20;;;14.70;38.40;;;;;;5070399;28;20056;-71
2021/04/03 12:22:45;;;;;;;29.88;5.88;;;14.90;40.30;;;;;;5060664;28;20055;-71
2021/04/03 12:25:12;;;;;;;24.75;6.47;;;15.20;39.50;;;;;;5062675;28;20048;-70
2021/04/03 12:27:39;;;;;;;21.05;5.65;;;15.60;39.80;;;;;;5089051;28;20110;-71
2021/04/03 12:30:07;;;;;;;27.23;6.10;;;15.50;40.30;;;;;;5075986;28;20064;-69
2021/04/03 12:32:34;;;;;;;24.90;6.05;;;16.10;37.50;;;;;;5091703;28;20344;-68
2021/04/03 12:35:01;;;;;;;23.20;5.07;;;16.00;37.10;;;;;;5092030;28;20040;-69
2021/04/03 12:37:27;;;;;;;29.17;6.35;;;15.90;35.70;;;;;;5092402;28;20083;-70
2021/04/03 12:39:54;;;;;;;24.25;5.15;;;15.40;36.70;;;;;;5093794;28;20075;-69
2021/04/03 12:42:21;;;;;;;27.10;5.93;;;15.50;37.10;;;;;;5094395;28;20040;-70
2021/04/03 12:44:47;;;;;;;27.42;6.00;;;15.30;37.80;;;;;;5094070;28;20355;-70
2021/04/03 12:47:14;;;;;;;29.08;6.60;;;15.30;37.90;;;;;;5094451;28;20055;-71
2021/04/03 12:49:40;;;;;;;24.13;5.28;;;15.30;38.20;;;;;;5093228;28;20422;-70
2021/04/03 12:52:07;;;;;;;24.85;5.60;;;15.60;37.40;;;;;;5076657;28;20040;-70
2021/04/03 12:54:34;;;;;;;17.63;5.07;;;15.60;37.70;;;;;;5094891;28;20105;-71
2021/04/03 12:57:02;;;;;;;27.08;5.70;;;15.70;37.50;;;;;;5095138;28;20094;-70
2021/04/03 12:59:28;;;;;;;21.15;5.10;;;16.30;36.80;;;;;;5094998;28;20076;-70
2021/04/03 13:01:55;;;;;;;26.05;5.45;;;16.50;35.50;;;;;;5063709;28;20120;-70
2021/04/03 13:04:22;;;;;;;17.27;5.00;;;16.60;35.00;;;;;;5093033;28;20430;-71
2021/04/03 13:06:49;;;;;;;20.98;5.38;;;16.50;34.30;;;;;;5093322;28;20413;-71
2021/04/03 13:09:15;;;;;;;23.42;6.65;;;16.50;35.30;;;;;;5092913;28;20120;-70
2021/04/03 13:11:43;;;;;;;21.67;5.40;;;16.30;35.50;;;;;;5093363;28;20043;-69
2021/04/03 13:14:13;;;;;;;25.05;5.72;;;16.40;35.30;;;;;;5075730;28;20036;-70
2021/04/03 13:16:40;;;;;;;23.48;5.65;;;16.40;34.50;;;;;;5093171;28;20047;-70
2021/04/03 13:19:06;;;;;;;18.95;5.53;;;16.50;35.20;;;;;;5093030;28;20073;-70
2021/04/03 13:21:35;;;;;;;25.08;5.93;;;16.50;35.70;;;;;;5092778;28;20051;-69
2021/04/03 13:24:02;;;;;;;;;;;16.20;35.50;;;;;;5093252;28;20124;-70
2021/04/03 13:26:28;;;;;;;24.92;6.05;;;16.30;37.40;;;;;;5090005;28;19938;-70
2021/04/03 13:28:55;;;;;;;22.58;5.43;;;16.70;36.40;;;;;;5063880;28;20035;-70
2021/04/03 13:31:22;;;;;;;23.65;5.35;;;17.00;35.30;;;;;;5073616;28;20043;-72
2021/04/03 13:33:48;;;;;;;;;;;17.00;35.30;;;;;;5072949;28;20057;-69